createdAt,value
2018-07-01T00:01:20.525Z,100895.00
2018-07-01T00:06:24.342Z,100885.00
2018-07-01T00:11:28.162Z,100899.00
2018-07-01T00:16:31.974Z,100906.00
2018-07-01T00:21:36.046Z,100908.00
2018-07-01T00:26:40.081Z,100908.00
2018-07-01T00:31:43.905Z,100915.00
2018-07-01T00:36:47.705Z,100916.00
2018-07-01T00:41:51.504Z,100926.00
2018-07-01T00:46:55.517Z,100921.00
2018-07-01T00:51:59.322Z,100924.00
2018-07-01T00:57:03.170Z,100926.00
2018-07-01T01:02:06.996Z,100927.00
2018-07-01T01:07:11.073Z,100933.00
2018-07-01T01:12:14.924Z,100936.00
2018-07-01T01:17:18.740Z,100934.00
2018-07-01T01:22:22.536Z,100931.00
2018-07-01T01:27:26.367Z,100940.00
2018-07-01T01:32:30.185Z,100938.00
2018-07-01T01:37:34.245Z,100936.00
2018-07-01T01:42:57.834Z,100939.00
2018-07-01T01:48:07.696Z,100947.00
2018-07-01T01:53:15.968Z,100952.00
2018-07-01T01:58:31.652Z,100950.00
2018-07-01T02:03:39.674Z,100943.00
2018-07-01T02:08:48.370Z,100946.00
2018-07-01T02:13:55.642Z,100941.00
2018-07-01T02:18:59.436Z,100943.00
2018-07-01T02:24:08.188Z,100945.00
2018-07-01T02:29:12.246Z,100952.00
2018-07-01T02:34:16.307Z,100949.00
2018-07-01T02:39:21.260Z,100959.00
2018-07-01T02:44:25.057Z,100954.00
2018-07-01T02:49:28.845Z,100956.00
2018-07-01T02:54:32.858Z,100963.00
2018-07-01T02:59:36.713Z,100959.00
2018-07-01T03:04:40.736Z,100962.00
2018-07-01T03:09:44.526Z,100958.00
2018-07-01T03:14:48.316Z,100958.00
2018-07-01T03:19:52.238Z,100965.00
2018-07-01T03:24:56.070Z,100970.00
2018-07-01T03:30:00.100Z,100972.00
2018-07-01T03:35:04.150Z,100974.00
2018-07-01T03:40:07.991Z,100979.00
2018-07-01T03:45:11.799Z,100976.00
2018-07-01T03:50:15.666Z,100973.00
2018-07-01T03:55:19.595Z,100976.00
2018-07-01T04:00:23.670Z,100978.00
2018-07-01T04:05:28.811Z,100970.00
2018-07-01T04:10:32.829Z,100974.00
2018-07-01T04:15:36.841Z,100968.00
2018-07-01T04:20:40.863Z,100970.00
2018-07-01T04:25:44.649Z,100974.00
2018-07-01T04:30:48.441Z,100972.00
2018-07-01T04:35:52.457Z,100978.00
2018-07-01T04:40:56.501Z,100983.00
2018-07-01T04:46:00.300Z,100982.00
2018-07-01T04:51:04.314Z,100982.00
2018-07-01T04:56:08.110Z,100990.00
2018-07-01T05:01:11.962Z,100981.00
2018-07-01T05:06:15.974Z,100986.00
2018-07-01T05:11:19.750Z,100988.00
2018-07-01T05:16:23.782Z,100985.00
2018-07-01T05:21:27.605Z,100981.00
2018-07-01T05:26:31.382Z,100993.00
2018-07-01T05:31:35.178Z,100994.00
2018-07-01T05:36:38.952Z,100992.00
2018-07-01T05:41:42.982Z,100990.00
2018-07-01T05:46:46.781Z,100996.00
2018-07-01T05:51:50.614Z,100999.00
2018-07-01T05:56:54.414Z,100996.00
2018-07-01T06:01:58.256Z,101001.00
2018-07-01T06:07:02.046Z,101004.00
2018-07-01T06:12:05.885Z,101016.00
2018-07-01T06:17:09.927Z,101009.00
2018-07-01T06:22:13.751Z,101011.00
2018-07-01T06:27:17.546Z,101010.00
2018-07-01T06:32:21.319Z,101014.00
2018-07-01T06:37:25.362Z,101019.00
2018-07-01T06:42:29.430Z,101038.00
2018-07-01T06:47:33.454Z,101049.00
2018-07-01T06:52:37.259Z,101034.00
2018-07-01T06:57:41.311Z,101045.00
2018-07-01T07:02:45.086Z,101053.00
2018-07-01T07:07:49.224Z,101056.00
2018-07-01T07:12:52.948Z,101048.00
2018-07-01T07:17:56.753Z,101063.00
2018-07-01T07:23:00.780Z,101052.00
2018-07-01T07:28:04.821Z,101058.00
2018-07-01T07:33:08.625Z,101045.00
2018-07-01T07:38:12.424Z,101050.00
2018-07-01T07:43:16.436Z,101048.00
2018-07-01T07:48:20.229Z,101052.00
2018-07-01T07:53:24.238Z,101038.00
2018-07-01T07:58:28.089Z,101072.00
2018-07-01T08:03:31.956Z,101043.00
2018-07-01T08:08:35.781Z,101074.00
2018-07-01T08:13:39.714Z,101066.00
2018-07-01T08:18:43.554Z,101069.00
2018-07-01T08:23:47.365Z,101062.00
2018-07-01T08:28:51.281Z,101075.00
2018-07-01T08:33:55.062Z,101073.00
2018-07-01T08:38:58.877Z,101064.00
2018-07-01T08:44:02.693Z,101062.00
2018-07-01T08:49:06.768Z,101068.00
2018-07-01T08:54:10.574Z,101085.00
2018-07-01T08:59:14.397Z,101077.00
2018-07-01T09:04:18.204Z,101086.00
2018-07-01T09:09:22.298Z,101091.00
2018-07-01T09:14:27.318Z,101097.00
2018-07-01T09:19:31.377Z,101091.00
2018-07-01T09:24:35.462Z,101094.00
2018-07-01T09:29:44.770Z,101079.00
2018-07-01T09:34:48.855Z,101074.00
2018-07-01T09:39:52.697Z,101092.00
2018-07-01T09:44:56.774Z,101075.00
2018-07-01T09:50:00.593Z,101064.00
2018-07-01T09:55:04.966Z,101058.00
2018-07-01T10:00:08.842Z,101055.00
2018-07-01T10:05:12.645Z,101032.00
2018-07-01T10:10:16.473Z,101025.00
2018-07-01T10:15:20.273Z,101026.00
2018-07-01T10:20:24.089Z,101027.00
2018-07-01T10:25:28.824Z,101022.00
2018-07-01T10:30:32.910Z,101017.00
2018-07-01T10:35:36.969Z,101000.00
2018-07-01T10:40:40.950Z,100993.00
2018-07-01T10:45:44.771Z,100995.00
2018-07-01T10:50:48.584Z,100992.00
2018-07-01T10:55:52.393Z,100992.00
2018-07-01T11:00:56.209Z,101000.00
2018-07-01T11:06:00.191Z,100988.00
2018-07-01T11:11:04.310Z,100982.00
2018-07-01T11:16:08.136Z,100980.00
2018-07-01T11:21:12.209Z,100986.00
2018-07-01T11:26:16.058Z,100954.00
2018-07-01T11:31:19.873Z,100950.00
2018-07-01T11:36:23.938Z,100961.00
2018-07-01T11:41:28.013Z,100948.00
2018-07-01T11:46:31.837Z,100946.00
2018-07-01T11:51:35.896Z,100931.00
2018-07-01T11:56:39.963Z,100952.00
2018-07-01T12:01:43.856Z,100957.00
2018-07-01T12:06:47.622Z,100935.00
2018-07-01T12:11:51.447Z,100931.00
2018-07-01T12:16:55.292Z,100943.00
2018-07-01T12:21:59.114Z,100921.00
2018-07-01T12:27:03.170Z,100921.00
2018-07-01T12:32:07.093Z,100906.00
2018-07-01T12:37:10.948Z,100907.00
2018-07-01T12:42:15.112Z,100898.00
2018-07-01T12:47:19.105Z,100898.00
2018-07-01T12:52:23.184Z,100886.00
2018-07-01T12:57:27.006Z,100894.00
2018-07-01T13:02:31.880Z,100884.00
2018-07-01T13:07:35.781Z,100871.00
2018-07-01T13:12:39.606Z,100872.00
2018-07-01T13:17:43.433Z,100873.00
2018-07-01T13:22:47.252Z,100865.00
2018-07-01T13:27:51.417Z,100858.00
2018-07-01T13:32:55.513Z,100857.00
2018-07-01T13:37:59.317Z,100860.00
2018-07-01T13:43:03.129Z,100861.00
2018-07-01T13:48:07.809Z,100855.00
2018-07-01T13:53:11.902Z,100847.00
2018-07-01T13:58:15.958Z,100849.00
2018-07-01T14:03:19.973Z,100846.00
2018-07-01T14:08:24.029Z,100851.00
2018-07-01T14:13:28.037Z,100843.00
2018-07-01T14:18:32.333Z,100848.00
2018-07-01T14:23:36.216Z,100837.00
2018-07-01T14:28:39.926Z,100833.00
2018-07-01T14:33:43.729Z,100833.00
2018-07-01T14:38:47.751Z,100830.00
2018-07-01T14:43:51.541Z,100840.00
2018-07-01T14:48:55.427Z,100840.00
2018-07-01T14:53:59.556Z,100821.00
2018-07-01T14:59:03.585Z,100819.00
2018-07-01T15:04:07.603Z,100824.00
2018-07-01T15:09:12.149Z,100821.00
2018-07-01T15:14:15.982Z,100801.00
2018-07-01T15:19:19.741Z,100808.00
2018-07-01T15:24:23.802Z,100791.00
2018-07-01T15:29:27.834Z,100817.00
2018-07-01T15:34:31.637Z,100815.00
2018-07-01T15:39:35.427Z,100803.00
2018-07-01T15:44:39.217Z,100796.00
2018-07-01T15:49:43.010Z,100799.00
2018-07-01T15:54:47.061Z,100798.00
2018-07-01T15:59:50.901Z,100792.00
2018-07-01T16:04:54.745Z,100784.00
2018-07-01T16:09:58.577Z,100795.00
2018-07-01T16:15:02.432Z,100789.00
2018-07-01T16:20:06.494Z,100792.00
2018-07-01T16:25:15.862Z,100782.00
2018-07-01T16:30:19.673Z,100792.00
2018-07-01T16:35:23.752Z,100788.00
2018-07-01T16:40:28.684Z,100792.00
2018-07-01T16:45:32.537Z,100791.00
2018-07-01T16:50:36.364Z,100802.00
2018-07-01T16:55:40.182Z,100794.00
2018-07-01T17:00:44.219Z,100793.00
2018-07-01T17:05:48.235Z,100794.00
2018-07-01T17:10:52.022Z,100794.00
2018-07-01T17:15:55.809Z,100793.00
2018-07-01T17:20:59.575Z,100789.00
2018-07-01T17:26:03.620Z,100789.00
2018-07-01T17:31:12.726Z,100793.00
2018-07-01T17:36:16.730Z,100789.00
2018-07-01T17:41:20.747Z,100789.00
2018-07-01T17:46:24.763Z,100788.00
2018-07-01T17:51:28.787Z,100794.00
2018-07-01T17:56:32.565Z,100790.00
2018-07-01T18:01:36.357Z,100791.00
2018-07-01T18:06:40.129Z,100783.00
2018-07-01T18:11:43.944Z,100789.00
2018-07-01T18:16:47.965Z,100790.00
2018-07-01T18:22:21.717Z,100789.00
2018-07-01T18:26:55.569Z,100784.00
2018-07-01T18:31:59.336Z,100787.00
2018-07-01T18:37:03.116Z,100788.00
2018-07-01T18:42:06.882Z,100785.00
2018-07-01T18:47:10.712Z,100787.00
2018-07-01T18:52:14.506Z,100787.00
2018-07-01T18:57:18.608Z,100790.00
2018-07-01T19:02:22.634Z,100785.00
2018-07-01T19:07:26.699Z,100788.00
2018-07-01T19:12:30.721Z,100788.00
2018-07-01T19:17:34.585Z,100790.00
2018-07-01T19:22:38.385Z,100790.00
2018-07-01T19:27:42.152Z,100795.00
2018-07-01T19:32:46.182Z,100799.00
2018-07-01T19:37:50.020Z,100804.00
2018-07-01T19:42:53.884Z,100809.00
2018-07-01T19:47:57.638Z,100821.00
2018-07-01T19:53:01.663Z,100826.00
2018-07-01T19:58:05.733Z,100831.00
2018-07-01T20:03:09.770Z,100837.00
2018-07-01T20:08:13.588Z,100838.00
2018-07-01T20:13:17.372Z,100843.00
2018-07-01T20:18:21.177Z,100839.00
2018-07-01T20:23:32.046Z,100844.00
2018-07-01T20:28:35.846Z,100851.00
2018-07-01T20:33:39.682Z,100853.00
2018-07-01T20:38:43.485Z,100860.00
2018-07-01T20:43:47.536Z,100861.00
2018-07-01T20:48:51.314Z,100864.00
2018-07-01T20:53:55.205Z,100857.00
2018-07-01T20:58:59.085Z,100859.00
2018-07-01T21:04:02.879Z,100869.00
2018-07-01T21:09:08.516Z,100870.00
2018-07-01T21:14:12.543Z,100873.00
2018-07-01T21:19:16.610Z,100882.00
2018-07-01T21:24:20.413Z,100894.00
2018-07-01T21:29:24.445Z,100896.00
2018-07-01T21:34:28.213Z,100897.00
2018-07-01T21:39:32.378Z,100904.00
2018-07-01T21:44:36.406Z,100910.00
2018-07-01T21:49:40.210Z,100907.00
2018-07-01T21:54:44.258Z,100916.00
2018-07-01T21:59:48.056Z,100908.00
2018-07-01T22:04:51.834Z,100907.00
2018-07-01T22:09:55.646Z,100914.00
2018-07-01T22:15:14.777Z,100915.00
2018-07-01T22:20:28.803Z,100911.00
2018-07-01T22:25:32.861Z,100917.00
2018-07-01T22:30:36.654Z,100921.00
2018-07-01T22:35:40.674Z,100915.00
2018-07-01T22:40:44.465Z,100915.00
2018-07-01T22:45:48.285Z,100917.00
2018-07-01T22:50:52.070Z,100912.00
2018-07-01T22:55:56.094Z,100917.00
2018-07-01T23:00:59.889Z,100915.00
2018-07-01T23:06:03.696Z,100926.00
2018-07-01T23:11:07.496Z,100920.00
2018-07-01T23:16:11.533Z,100920.00
2018-07-01T23:21:15.425Z,100917.00
2018-07-01T23:26:19.199Z,100912.00
2018-07-01T23:31:22.969Z,100915.00
2018-07-01T23:36:26.749Z,100901.00
2018-07-01T23:41:30.783Z,100902.00
2018-07-01T23:46:34.606Z,100902.00
2018-07-01T23:51:38.433Z,100887.00
2018-07-01T23:56:42.251Z,100883.00
